Terminal Aerodrome Forecast
Issued by NWS

Home | Current Version | Previous Version | Text Only | Print | Product List | Glossary On
Versions: 1 2 3 4 5 6 7 8 9 10 11 12 13 14
000
FTUS44 KLIX 231700
TAFMSY
TAF
KMSY 231721Z 2318/2418 01007KT P6SM SCT040
     FM232300 23005KT P6SM SCT250
     FM240200 VRB04KT P6SM FEW250
     FM241600 33008KT P6SM FEW035=

USA.gov is the U.S. government's official web portal to all federal, state and local government web resources and services.